x

San Francisco - 18nm West Of San Francisco, Ca (46026) Wave Buoy

7:50am - Wed 21st Feb 2018 All times are PST. -8 hours from GMT.

  • Sig Wave height 3.9ft
  • Swell Direction
  • Peak Period 15s
  • Average Period 7s
  • Wind
    13mph, 16mph gusts
  • Sea Temp 50°f
  • Air Temp 47°f
  • Sea Pressure 1022.1mb
  • San Francisco - 18nm West Of San Francisco, Ca
  • San Francisco - 18nm West Of San Francisco, Ca

More Historic Weather Station data

Upgrade to MSW Pro to gain access to the past 30 days of data for over 8000 Wavebouys and Weather Stations around the globe.

Join

Comparision Forecast

View Surf forecast
   
Wed 02/21 7:50am 4ft 15s 7s 13 16 mph 1022.1mb 50f 47f
6:50am 5ft 16s 7s 13 16 mph 1021.8mb 50f 47f
5:50am 4.5ft 16s 8s 13 16 mph 1021.6mb 50f 47f
4:50am 4ft 16s 8s 9 11 mph 1021.4mb 50f 47f
3:50am 4.5ft 16s 8s 7 7 mph 1021.1mb 50f 47f
2:50am 4.5ft 16s 8s 2 2 mph 1020.8mb 50f 48f
1:50am 4.5ft 16s 7s 4 7 mph 1021.7mb 50f 48f
12:50am 4.5ft 16s 7s 4 7 mph 1022.1mb 50f 48f
Tue 02/20 11:50pm 4.5ft 16s 7s 7 9 mph 1022.3mb 50f 48f
10:50pm 5ft 16s 7s 9 11 mph 1022.6mb 50f 48f
9:50pm 5ft 17s 6s 11 13 mph 1022.8mb 50f 48f
8:50pm 5ft 17s 6s 11 16 mph 1022.8mb 50f 48f
7:50pm 5ft 11s 6s 13 18 mph 1022.9mb 51f 48f
6:50pm 5.5ft 11s 6s 16 20 mph 1022.9mb 51f 48f
5:50pm 6ft 17s 6s 18 20 mph 1022.7mb 51f 47f
4:50pm 5ft 11s 6s 18 22 mph 1022.5mb 51f 48f
3:50pm 5ft 17s 6s 16 20 mph 1022.6mb 51f 47f
2:50pm 5ft 11s 6s 16 20 mph 1023mb 51f 46f
1:50pm 5ft 12s 6s 16 18 mph 1023.1mb 51f 46f
12:50pm 5ft 7s 6s 11 13 mph 1023.7mb 51f 45f
11:50am 6ft 11s 7s 4 7 mph 1024mb 51f 44f
10:50am 6ft 9s 7s 9 11 mph 1024.4mb 50f 44f
9:50am 6.5ft 12s 7s 9 13 mph 1024.3mb 50f 44f
8:50am 6.5ft 8s 6s 7 11 mph 1024.1mb 50f 44f
7:50am 7ft 11s 7s 13 18 mph 1023.7mb 50f 45f
6:50am 7ft 12s 7s 16 18 mph 1023.4mb 50f 44f
5:50am 8ft 8s 7s 16 18 mph 1022.7mb 50f 44f
4:50am 8ft 13s 7s 13 18 mph 1022.5mb 50f 45f
3:50am 8ft 9s 7s 16 18 mph 1022.2mb 51f 45f
2:50am 8ft 11s 7s 18 20 mph 1022.1mb 51f 45f
1:50am 8ft 13s 7s 20 22 mph 1022mb 51f 46f
12:50am 8ft 14s 7s 20 22 mph 1021.5mb 51f 46f
Mon 02/19 11:50pm 9ft 14s 7s 20 25 mph 1021mb 51f 46f
10:50pm 9.5ft 14s 7s 20 25 mph 1020.5mb 51f 46f
9:50pm 10.5ft 9s 7s 25 31 mph 1020.4mb 51f 47f
8:50pm 10ft 13s 7s 27 29 mph 1019.6mb 51f 47f
7:50pm 11ft 13s 7s 29 36 mph 1018.7mb 51f 47f
6:50pm 12ft 15s 7s 34 43 mph 1017.8mb 52f 48f
5:50pm 12ft 14s 7s 34 40 mph 1017.2mb 52f 48f
4:50pm 12ft 14s 7s 34 40 mph 1017.1mb 52f 47f
3:50pm 11ft 14s 7s 31 36 mph 1016.9mb 52f 48f
2:50pm 10.5ft 13s 7s 31 38 mph 1016.6mb 52f 47f
1:50pm 11.5ft 13s 8s 29 36 mph 1016.8mb 52f 47f
12:50pm 10ft 16s 7s 25 31 mph 1017.5mb 52f 46f
11:50am 11.5ft 15s 8s 25 29 mph 1017.7mb 52f 46f
10:50am 12.5ft 14s 8s 27 31 mph 1017.6mb 52f 46f
9:50am 11ft 15s 8s 27 31 mph 1017.2mb 52f 46f
8:50am 11ft 15s 7s 27 34 mph 1016.9mb 51f 45f
7:50am 11ft 15s 7s 29 36 mph 1015.9mb 51f 45f
6:50am 12ft 13s 8s 31 38 mph 1015mb 51f 45f
5:50am 10.5ft 13s 8s 27 34 mph 1014.9mb 51f 45f
4:50am 10.5ft 12s 7s 25 34 mph 1015.4mb 52f 43f
3:50am 10ft 12s 7s 29 38 mph 1015.1mb 52f 44f
2:50am 10ft 12s 7s 22 27 mph 1015.1mb 52f 45f
1:50am 10.5ft 11s 7s 27 34 mph 1015.3mb 52f 45f
12:50am 10ft 12s 7s 27 34 mph 1015.5mb 52f 46f
Sun 02/18 11:50pm 11ft 9s 7s 27 34 mph 1015.5mb 52f 46f
10:50pm 9.5ft 10s 7s 27 34 mph 1015.5mb 52f 47f
9:50pm 10ft 8s 7s 27 31 mph 1015.6mb 52f 47f
8:50pm 9.5ft 8s 7s 27 34 mph 1015.1mb 52f 47f
7:50pm 10ft 12s 6s 29 36 mph 1014.8mb 52f 47f
6:50pm 9.5ft 7s 6s 29 38 mph 1015.3mb 52f 48f
5:50pm 9ft 8s 6s 29 36 mph 1015mb 52f 48f
4:50pm 8.5ft 7s 6s 29 38 mph 1015.1mb 52f 49f
3:50pm 7.5ft 7s 6s 27 36 mph 1015.3mb 52f 49f
2:50pm 7.5ft 7s 6s 25 31 mph 1015.5mb 52f 50f
1:50pm 7ft 14s 6s 27 36 mph 1015.9mb 52f 50f
12:50pm 6.5ft 8s 6s 27 31 mph 1016.6mb 52f 50f
11:50am 7ft 15s 6s 25 29 mph 1017.1mb 52f 50f
10:50am 6.5ft 7s 5s 27 34 mph 1017.4mb 52f 49f
9:50am 6.5ft 14s 6s 22 25 mph 1017.6mb 52f 51f
8:50am 6ft 6s 5s 22 29 mph 1017.2mb 52f 50f
7:50am 6ft 6s 5s 22 27 mph 1016.7mb 52f 50f
6:50am 6ft 15s 6s 20 25 mph 1016.5mb 52f 50f
5:50am 6.5ft 7s 6s 18 20 mph 1016.5mb 52f 51f
4:50am 6ft 7s 6s 18 20 mph 1016.3mb 52f 50f
3:50am 7ft 7s 6s 22 27 mph 1016.3mb 52f 51f
2:50am 7ft 7s 6s 22 25 mph 1016.5mb 52f 51f
1:50am 7ft 14s 6s 25 29 mph 1016.6mb 52f 50f
12:50am 7ft 7s 6s 25 29 mph 1016.9mb 52f 50f
Sat 02/17 10:50pm 7ft 7s 6s 27 34 mph 1017.1mb 52f 51f
9:50pm 8ft 7s 6s 22 29 mph 1017.5mb 53f 51f
8:50pm 7ft 7s 6s 27 31 mph 1017.3mb 53f 51f
7:50pm 6ft 7s 5s 20 25 mph 1017.7mb 53f 52f
6:50pm 5.5ft 15s 6s 20 27 mph 1018.2mb 53f 52f
5:50pm 5ft 7s 6s 18 22 mph 1018.3mb 53f 52f